Terminal Aerodrome Forecast
Issued by NWS

Home | Current Version | Previous Version | Text Only | Print | Product List | Glossary On
Versions: 1 2 3 4 5 6 7 8 9 10 11 12 13 14 15 16 17 18 19 20 21 22 23 24 25 26 27 28 29 30 31
000
FTUS46 KLOX 280148 AAA
TAFLGB
TAF AMD
KLGB 280148Z 2802/2824 29015G25KT P6SM FEW045
     FM280400 33014G22KT P6SM SKC
     FM280600 33006KT P6SM SKC
     FM281100 VRB03KT P6SM SKC
     FM282300 29012G18KT P6SM SKC=

USA.gov is the U.S. government's official web portal to all federal, state and local government web resources and services.